createdAt,value
2018-06-29T00:00:18.757Z,88.05
2018-06-29T00:02:48.935Z,87.79
2018-06-29T00:05:54.702Z,88.04
2018-06-29T00:08:24.909Z,87.60
2018-06-29T00:10:58.963Z,87.33
2018-06-29T00:13:58.945Z,87.49
2018-06-29T00:19:34.945Z,87.20
2018-06-29T00:22:11.687Z,87.38
2018-06-29T00:24:48.156Z,87.07
2018-06-29T00:27:36.611Z,87.49
2018-06-29T00:30:10.434Z,87.67
2018-06-29T00:32:51.496Z,87.62
2018-06-29T00:35:23.479Z,87.21
2018-06-29T00:37:57.195Z,87.76
2018-06-29T00:40:30.373Z,87.58
2018-06-29T00:43:08.229Z,87.62
2018-06-29T00:45:40.050Z,88.03
2018-06-29T00:48:12.091Z,87.62
2018-06-29T00:50:46.783Z,87.68
2018-06-29T00:53:16.746Z,87.49
2018-06-29T00:55:47.660Z,87.34
2018-06-29T00:58:18.107Z,87.53
2018-06-29T01:00:48.094Z,87.49
2018-06-29T01:03:22.580Z,87.83
2018-06-29T01:05:56.935Z,87.31
2018-06-29T01:08:30.767Z,87.50
2018-06-29T01:11:00.983Z,87.78
2018-06-29T01:13:31.174Z,87.45
2018-06-29T01:16:00.392Z,87.42
2018-06-29T01:18:31.351Z,87.37
2018-06-29T01:21:03.805Z,87.57
2018-06-29T01:23:33.999Z,87.52
2018-06-29T01:26:04.449Z,87.57
2018-06-29T01:28:37.139Z,88.01
2018-06-29T01:31:08.880Z,88.11
2018-06-29T01:33:42.452Z,87.97
2018-06-29T01:36:14.307Z,88.31
2018-06-29T01:38:46.174Z,88.34
2018-06-29T01:41:23.352Z,88.61
2018-06-29T01:44:00.700Z,88.50
2018-06-29T01:46:34.959Z,88.26
2018-06-29T01:49:12.600Z,87.94
2018-06-29T01:51:50.390Z,87.99
2018-06-29T01:54:36.178Z,87.68
2018-06-29T01:57:11.943Z,86.65
2018-06-29T01:59:41.098Z,87.35
2018-06-29T02:02:16.042Z,86.88
2018-06-29T02:07:36.227Z,86.26
2018-06-29T02:10:40.641Z,86.28
2018-06-29T02:16:03.670Z,87.12
2018-06-29T02:18:39.201Z,86.88
2018-06-29T02:21:28.320Z,87.42
2018-06-29T02:26:43.009Z,87.50
2018-06-29T02:29:20.828Z,87.20
2018-06-29T02:31:51.825Z,87.35
2018-06-29T02:34:24.450Z,87.32
2018-06-29T02:37:06.553Z,87.17
2018-06-29T02:39:40.281Z,86.91
2018-06-29T02:42:13.076Z,86.98
2018-06-29T02:44:44.519Z,87.05
2018-06-29T02:47:15.341Z,87.10
2018-06-29T02:49:59.647Z,87.04
2018-06-29T02:52:34.980Z,86.84
2018-06-29T02:55:06.959Z,86.81
2018-06-29T02:57:38.535Z,86.94
2018-06-29T03:00:09.823Z,87.26
2018-06-29T03:02:41.823Z,86.68
2018-06-29T03:05:16.640Z,87.13
2018-06-29T03:07:47.767Z,87.01
2018-06-29T03:10:19.286Z,87.08
2018-06-29T03:12:53.912Z,87.28
2018-06-29T03:15:31.762Z,86.65
2018-06-29T03:18:15.380Z,87.21
2018-06-29T03:20:57.337Z,87.28
2018-06-29T03:23:28.157Z,86.41
2018-06-29T03:26:03.361Z,86.58
2018-06-29T03:28:42.909Z,87.00
2018-06-29T03:31:26.804Z,86.96
2018-06-29T03:33:56.789Z,86.55
2018-06-29T03:36:26.014Z,86.59
2018-06-29T03:38:55.363Z,87.04
2018-06-29T03:41:24.736Z,87.76
2018-06-29T03:43:54.568Z,87.79
2018-06-29T03:46:29.538Z,87.73
2018-06-29T03:49:02.836Z,88.15
2018-06-29T03:51:33.409Z,87.71
2018-06-29T03:54:04.438Z,87.78
2018-06-29T03:56:36.507Z,87.99
2018-06-29T03:59:08.860Z,87.65
2018-06-29T04:01:48.746Z,88.39
2018-06-29T04:04:18.058Z,88.26
2018-06-29T04:06:54.258Z,88.39
2018-06-29T04:09:27.613Z,88.37
2018-06-29T04:12:00.880Z,88.60
2018-06-29T04:14:31.670Z,88.04
2018-06-29T04:17:01.482Z,88.08
2018-06-29T04:19:33.496Z,88.12
2018-06-29T04:22:04.821Z,87.34
2018-06-29T04:24:39.332Z,87.34
2018-06-29T04:27:11.741Z,87.71
2018-06-29T04:29:41.851Z,87.78
2018-06-29T04:32:11.780Z,87.24
2018-06-29T04:34:43.684Z,87.44
2018-06-29T04:37:17.182Z,87.62
2018-06-29T04:39:47.304Z,87.21
2018-06-29T04:42:16.280Z,87.04
2018-06-29T04:44:45.728Z,86.33
2018-06-29T04:47:17.300Z,86.79
2018-06-29T04:49:46.608Z,86.47
2018-06-29T04:52:27.327Z,85.98
2018-06-29T04:54:56.426Z,85.19
2018-06-29T04:57:25.746Z,85.86
2018-06-29T04:59:56.488Z,85.93
2018-06-29T05:02:26.037Z,86.09
2018-06-29T05:04:57.003Z,85.91
2018-06-29T05:07:26.236Z,85.71
2018-06-29T05:09:55.271Z,85.70
2018-06-29T05:12:24.990Z,85.82
2018-06-29T05:14:54.514Z,86.08
2018-06-29T05:17:28.122Z,86.25
2018-06-29T05:19:57.400Z,86.41
2018-06-29T05:22:26.565Z,85.74
2018-06-29T05:24:55.648Z,85.69
2018-06-29T05:27:26.773Z,85.45
2018-06-29T05:29:56.167Z,85.04
2018-06-29T05:32:26.547Z,84.54
2018-06-29T05:35:00.356Z,84.64
2018-06-29T05:37:45.109Z,84.30
2018-06-29T05:40:16.733Z,84.57
2018-06-29T05:43:05.925Z,85.05
2018-06-29T05:45:35.868Z,84.93
2018-06-29T05:48:35.370Z,84.87
2018-06-29T05:51:12.940Z,84.89
2018-06-29T05:53:48.752Z,84.87
2018-06-29T05:56:19.485Z,84.14
2018-06-29T05:58:56.344Z,84.66
2018-06-29T06:01:28.070Z,84.76
2018-06-29T06:04:04.280Z,84.02
2018-06-29T06:06:34.772Z,83.49
2018-06-29T06:09:17.300Z,82.60
2018-06-29T06:11:50.186Z,83.14
2018-06-29T06:14:45.243Z,82.63
2018-06-29T06:17:31.982Z,82.08
2018-06-29T06:20:15.342Z,82.11
2018-06-29T06:23:00.139Z,81.75
2018-06-29T06:25:34.142Z,81.85
2018-06-29T06:28:06.445Z,81.95
2018-06-29T06:30:42.212Z,81.62
2018-06-29T06:33:21.338Z,80.86
2018-06-29T06:35:56.931Z,81.56
2018-06-29T06:38:29.456Z,81.23
2018-06-29T06:41:11.831Z,81.71
2018-06-29T06:43:40.868Z,81.67
2018-06-29T06:46:10.066Z,81.57
2018-06-29T06:48:54.993Z,81.85
2018-06-29T06:51:36.233Z,79.59
2018-06-29T06:54:05.479Z,79.35
2018-06-29T06:56:44.729Z,79.27
2018-06-29T06:59:14.111Z,79.75
2018-06-29T07:01:45.763Z,78.34
2018-06-29T07:04:15.133Z,79.41
2018-06-29T07:06:44.310Z,79.03
2018-06-29T07:09:16.217Z,79.19
2018-06-29T07:11:45.469Z,78.22
2018-06-29T07:14:15.750Z,79.11
2018-06-29T07:17:01.226Z,78.19
2018-06-29T07:19:42.491Z,78.48
2018-06-29T07:22:11.678Z,77.58
2018-06-29T07:24:43.753Z,76.96
2018-06-29T07:27:18.511Z,78.04
2018-06-29T07:30:20.556Z,78.49
2018-06-29T07:32:55.656Z,77.97
2018-06-29T07:35:28.364Z,77.17
2018-06-29T07:37:57.813Z,76.78
2018-06-29T07:40:27.878Z,76.48
2018-06-29T07:43:27.453Z,76.69
2018-06-29T07:45:57.792Z,76.11
2018-06-29T07:48:37.518Z,76.33
2018-06-29T07:51:13.692Z,76.15
2018-06-29T07:53:53.287Z,76.23
2018-06-29T07:56:22.752Z,76.88
2018-06-29T08:02:00.110Z,75.36
2018-06-29T08:04:35.455Z,74.96
2018-06-29T08:07:09.871Z,74.78
2018-06-29T08:09:42.306Z,74.92
2018-06-29T08:12:17.532Z,75.84
2018-06-29T08:17:43.459Z,75.24
2018-06-29T08:23:28.401Z,74.94
2018-06-29T08:29:05.244Z,74.12
2018-06-29T08:31:36.337Z,73.06
2018-06-29T08:38:30.392Z,71.18
2018-06-29T08:41:05.128Z,70.95
2018-06-29T08:43:34.467Z,70.23
2018-06-29T08:46:04.431Z,69.43
2018-06-29T08:48:45.702Z,69.67
2018-06-29T08:52:05.490Z,68.89
2018-06-29T08:54:37.949Z,68.50
2018-06-29T08:57:07.225Z,68.02
2018-06-29T09:00:11.497Z,67.44
2018-06-29T09:02:43.253Z,66.95
2018-06-29T09:05:13.617Z,67.38
2018-06-29T09:07:45.693Z,67.96
2018-06-29T09:13:05.964Z,65.81
2018-06-29T09:15:35.057Z,66.11
2018-06-29T09:18:20.478Z,66.03
2018-06-29T09:21:13.584Z,66.03
2018-06-29T09:24:09.107Z,66.20
2018-06-29T09:26:38.341Z,66.35
2018-06-29T09:29:09.938Z,66.83
2018-06-29T09:31:42.250Z,67.39
2018-06-29T09:34:13.082Z,67.92
2018-06-29T09:36:44.713Z,67.10
2018-06-29T09:39:18.189Z,67.00
2018-06-29T09:41:49.041Z,67.02
2018-06-29T09:44:20.953Z,67.39
2018-06-29T09:46:50.756Z,67.32
2018-06-29T09:49:19.827Z,66.94
2018-06-29T09:51:49.779Z,67.27
2018-06-29T09:54:19.835Z,66.64
2018-06-29T09:56:48.983Z,67.39
2018-06-29T09:59:18.202Z,67.51
2018-06-29T10:01:53.871Z,67.68
2018-06-29T10:06:54.591Z,66.02
2018-06-29T10:09:35.696Z,67.04
2018-06-29T10:12:04.583Z,65.72
2018-06-29T10:14:49.765Z,64.54
2018-06-29T10:17:20.564Z,64.83
2018-06-29T10:19:51.267Z,65.24
2018-06-29T10:22:22.816Z,65.80
2018-06-29T10:24:55.752Z,64.81
2018-06-29T10:27:24.816Z,64.57
2018-06-29T10:29:54.391Z,65.26
2018-06-29T10:32:25.566Z,65.57
2018-06-29T10:34:55.492Z,65.14
2018-06-29T10:37:28.089Z,66.24
2018-06-29T10:40:04.765Z,66.43
2018-06-29T10:42:36.700Z,66.61
2018-06-29T10:45:10.042Z,64.69
2018-06-29T10:47:40.444Z,65.24
2018-06-29T10:50:09.388Z,64.34
2018-06-29T10:52:39.639Z,64.03
2018-06-29T10:55:10.921Z,64.68
2018-06-29T10:57:39.803Z,63.67
2018-06-29T11:00:08.815Z,63.65
2018-06-29T11:02:37.923Z,63.64
2018-06-29T11:05:06.990Z,62.69
2018-06-29T11:07:35.931Z,62.48
2018-06-29T11:10:05.251Z,62.68
2018-06-29T11:12:33.936Z,62.48
2018-06-29T11:15:02.595Z,61.89
2018-06-29T11:17:31.467Z,62.41
2018-06-29T11:20:01.309Z,62.35
2018-06-29T11:22:33.200Z,62.85
2018-06-29T11:25:02.102Z,62.48
2018-06-29T11:27:31.413Z,63.01
2018-06-29T11:30:00.432Z,60.96
2018-06-29T11:32:31.322Z,61.00
2018-06-29T11:35:02.780Z,60.12
2018-06-29T11:37:31.819Z,59.89
2018-06-29T11:40:01.035Z,60.74
2018-06-29T11:42:29.951Z,61.15
2018-06-29T11:44:58.855Z,61.59
2018-06-29T11:47:27.760Z,61.16
2018-06-29T11:49:56.923Z,61.80
2018-06-29T11:52:25.628Z,62.13
2018-06-29T11:54:54.439Z,61.07
2018-06-29T11:57:23.576Z,61.14
2018-06-29T11:59:52.821Z,60.50
2018-06-29T12:02:21.795Z,59.72
2018-06-29T12:04:50.779Z,60.15
2018-06-29T12:07:24.614Z,59.60
2018-06-29T12:09:53.586Z,59.44
2018-06-29T12:12:22.869Z,58.76
2018-06-29T12:14:51.963Z,59.52
2018-06-29T12:17:21.043Z,58.20
2018-06-29T12:19:49.993Z,60.17
2018-06-29T12:22:19.310Z,58.57
2018-06-29T12:24:48.341Z,59.65
2018-06-29T12:27:18.154Z,60.41
2018-06-29T12:29:47.060Z,60.67
2018-06-29T12:32:15.997Z,61.00
2018-06-29T12:34:45.133Z,60.27
2018-06-29T12:37:14.476Z,60.26
2018-06-29T12:39:43.391Z,62.08
2018-06-29T12:42:12.383Z,61.91
2018-06-29T12:44:41.481Z,62.75
2018-06-29T12:47:10.229Z,62.22
2018-06-29T12:49:38.873Z,62.66
2018-06-29T12:52:07.834Z,63.30
2018-06-29T12:54:36.855Z,63.78
2018-06-29T12:57:05.889Z,64.28
2018-06-29T12:59:34.766Z,63.82
2018-06-29T13:02:03.760Z,63.72
2018-06-29T13:04:32.699Z,63.82
2018-06-29T13:07:01.731Z,62.36
2018-06-29T13:09:30.662Z,61.41
2018-06-29T13:11:59.876Z,61.32
2018-06-29T13:14:28.799Z,62.32
2018-06-29T13:16:58.668Z,62.97
2018-06-29T13:19:27.498Z,63.21
2018-06-29T13:21:56.245Z,63.23
2018-06-29T13:24:24.888Z,63.38
2018-06-29T13:26:53.520Z,63.21
2018-06-29T13:29:23.220Z,63.35
2018-06-29T13:31:52.297Z,63.69
2018-06-29T13:34:21.262Z,63.00
2018-06-29T13:36:50.319Z,63.61
2018-06-29T13:39:20.371Z,64.10
2018-06-29T13:41:49.303Z,63.13
2018-06-29T13:44:18.152Z,64.15
2018-06-29T13:46:47.013Z,63.44
2018-06-29T13:49:15.654Z,62.20
2018-06-29T13:51:44.367Z,62.82
2018-06-29T13:54:13.021Z,63.40
2018-06-29T13:56:41.980Z,64.49
2018-06-29T13:59:10.759Z,64.63
2018-06-29T14:01:40.224Z,62.91
2018-06-29T14:04:09.181Z,62.40
2018-06-29T14:06:37.995Z,63.09
2018-06-29T14:09:08.451Z,63.01
2018-06-29T14:11:37.165Z,64.30
2018-06-29T14:14:05.958Z,64.06
2018-06-29T14:16:34.911Z,63.64
2018-06-29T14:19:04.166Z,64.08
2018-06-29T14:21:33.207Z,65.08
2018-06-29T14:24:02.136Z,64.42
2018-06-29T14:26:31.158Z,64.34
2018-06-29T14:29:00.137Z,65.51
2018-06-29T14:31:29.444Z,65.02
2018-06-29T14:33:58.461Z,65.16
2018-06-29T14:36:27.515Z,65.69
2018-06-29T14:38:56.901Z,66.76
2018-06-29T14:41:25.839Z,67.52
2018-06-29T14:43:54.974Z,67.35
2018-06-29T14:46:24.119Z,67.43
2018-06-29T14:51:23.928Z,69.57
2018-06-29T14:53:52.924Z,70.49
2018-06-29T14:56:21.920Z,70.62
2018-06-29T14:58:50.887Z,70.01
2018-06-29T15:01:19.874Z,69.38
2018-06-29T15:03:48.980Z,69.61
2018-06-29T15:06:17.992Z,69.05
2018-06-29T15:08:47.039Z,69.00
2018-06-29T15:11:16.185Z,69.63
2018-06-29T15:13:45.265Z,68.99
2018-06-29T15:16:34.227Z,69.66
2018-06-29T15:19:03.167Z,69.62
2018-06-29T15:21:32.165Z,70.04
2018-06-29T15:24:02.189Z,69.61
2018-06-29T15:26:31.237Z,70.39
2018-06-29T15:29:01.165Z,70.79
2018-06-29T15:31:30.242Z,71.96
2018-06-29T15:34:00.167Z,73.23
2018-06-29T15:36:29.195Z,74.09
2018-06-29T15:38:58.842Z,75.85
2018-06-29T15:41:28.767Z,76.92
2018-06-29T15:43:57.489Z,77.64
2018-06-29T15:46:27.565Z,78.17
2018-06-29T15:48:56.672Z,78.07
2018-06-29T15:51:25.449Z,78.44
2018-06-29T15:53:54.237Z,79.38
2018-06-29T15:56:24.013Z,79.14
2018-06-29T15:58:53.709Z,79.73
2018-06-29T16:01:42.865Z,78.61
2018-06-29T16:04:15.774Z,78.71
2018-06-29T16:06:45.612Z,78.32
2018-06-29T16:09:14.732Z,77.60
2018-06-29T16:11:43.671Z,76.80
2018-06-29T16:14:12.788Z,77.44
2018-06-29T16:16:41.775Z,75.55
2018-06-29T16:19:11.036Z,74.99
2018-06-29T16:21:39.752Z,74.48
2018-06-29T16:24:08.554Z,74.02
2018-06-29T16:26:38.886Z,73.33
2018-06-29T16:29:07.951Z,73.76
2018-06-29T16:31:38.222Z,73.53
2018-06-29T16:34:12.218Z,74.44
2018-06-29T16:36:41.147Z,75.20
2018-06-29T16:39:12.347Z,76.40
2018-06-29T16:41:43.391Z,77.63
2018-06-29T16:44:12.349Z,79.12
2018-06-29T16:46:41.694Z,79.55
2018-06-29T16:49:10.846Z,79.42
2018-06-29T16:51:39.859Z,79.65
2018-06-29T16:54:09.004Z,80.04
2018-06-29T16:56:38.110Z,80.22
2018-06-29T16:59:07.230Z,79.81
2018-06-29T17:01:36.247Z,79.91
2018-06-29T17:04:05.241Z,79.77
2018-06-29T17:06:34.131Z,79.07
2018-06-29T17:09:03.342Z,78.39
2018-06-29T17:11:32.305Z,77.83
2018-06-29T17:14:01.410Z,78.16
2018-06-29T17:16:30.561Z,77.97
2018-06-29T17:18:59.579Z,78.63
2018-06-29T17:21:29.250Z,78.65
2018-06-29T17:23:58.453Z,78.52
2018-06-29T17:26:29.686Z,78.57
2018-06-29T17:28:58.838Z,78.68
2018-06-29T17:31:33.873Z,79.00
2018-06-29T17:34:04.967Z,79.11
2018-06-29T17:36:34.052Z,79.81
2018-06-29T17:39:04.464Z,80.33
2018-06-29T17:41:33.414Z,80.51
2018-06-29T17:44:02.425Z,81.28
2018-06-29T17:46:31.495Z,81.71
2018-06-29T17:49:00.482Z,81.57
2018-06-29T17:51:29.549Z,80.09
2018-06-29T17:53:58.700Z,80.48
2018-06-29T17:56:27.949Z,81.44
2018-06-29T17:58:56.927Z,81.73
2018-06-29T18:01:26.183Z,81.24
2018-06-29T18:03:55.277Z,80.56
2018-06-29T18:06:24.365Z,81.13
2018-06-29T18:08:54.239Z,81.43
2018-06-29T18:11:23.295Z,81.97
2018-06-29T18:13:52.215Z,82.17
2018-06-29T18:16:21.315Z,81.41
2018-06-29T18:18:50.277Z,82.68
2018-06-29T18:21:19.274Z,82.09
2018-06-29T18:23:48.050Z,82.59
2018-06-29T18:26:16.953Z,82.65
2018-06-29T18:28:45.980Z,82.20
2018-06-29T18:31:14.747Z,81.84
2018-06-29T18:33:43.417Z,82.29
2018-06-29T18:36:12.334Z,82.10
2018-06-29T18:38:41.215Z,82.09
2018-06-29T18:41:10.295Z,82.12
2018-06-29T18:43:39.189Z,81.82
2018-06-29T18:46:08.583Z,82.12
2018-06-29T18:48:37.635Z,82.00
2018-06-29T18:51:06.575Z,82.36
2018-06-29T18:53:35.490Z,82.83
2018-06-29T18:56:04.470Z,83.05
2018-06-29T18:58:33.438Z,82.31
2018-06-29T19:01:02.307Z,82.75
2018-06-29T19:03:31.031Z,83.02
2018-06-29T19:05:59.843Z,82.71
2018-06-29T19:08:28.767Z,83.44
2018-06-29T19:10:57.720Z,83.15
2018-06-29T19:13:26.377Z,82.88
2018-06-29T19:15:55.261Z,83.51
2018-06-29T19:18:24.217Z,83.10
2018-06-29T19:20:53.184Z,83.35
2018-06-29T19:23:22.155Z,83.43
2018-06-29T19:25:53.010Z,82.77
2018-06-29T19:28:21.764Z,83.03
2018-06-29T19:30:50.648Z,83.50
2018-06-29T19:33:19.676Z,83.72
2018-06-29T19:36:04.508Z,83.87
2018-06-29T19:38:33.539Z,84.13
2018-06-29T19:41:02.810Z,83.54
2018-06-29T19:43:31.818Z,84.11
2018-06-29T19:46:00.846Z,83.80
2018-06-29T19:48:29.754Z,83.76
2018-06-29T19:50:58.720Z,83.61
2018-06-29T19:53:27.689Z,83.58
2018-06-29T19:55:56.640Z,84.05
2018-06-29T19:58:25.624Z,83.88
2018-06-29T20:00:54.968Z,84.37
2018-06-29T20:03:30.443Z,84.30
2018-06-29T20:06:00.261Z,84.20
2018-06-29T20:08:28.992Z,84.33
2018-06-29T20:10:57.823Z,84.61
2018-06-29T20:16:17.329Z,85.44
2018-06-29T20:18:47.189Z,85.05
2018-06-29T20:21:16.292Z,84.88
2018-06-29T20:23:45.262Z,84.64
2018-06-29T20:26:14.175Z,84.59
2018-06-29T20:28:43.175Z,85.14
2018-06-29T20:31:12.411Z,85.39
2018-06-29T20:33:41.556Z,85.54
2018-06-29T20:36:10.570Z,85.32
2018-06-29T20:38:39.575Z,85.58
2018-06-29T20:41:14.073Z,85.80
2018-06-29T20:43:43.133Z,85.69
2018-06-29T20:46:12.099Z,85.32
2018-06-29T20:48:41.106Z,85.96
2018-06-29T20:51:10.126Z,85.97
2018-06-29T20:53:39.169Z,86.01
2018-06-29T20:56:08.396Z,85.76
2018-06-29T20:58:37.096Z,85.51
2018-06-29T21:01:06.035Z,86.08
2018-06-29T21:03:35.002Z,85.56
2018-06-29T21:06:04.162Z,85.90
2018-06-29T21:08:33.203Z,86.11
2018-06-29T21:11:02.219Z,86.29
2018-06-29T21:13:31.182Z,86.16
2018-06-29T21:16:00.723Z,86.29
2018-06-29T21:18:29.753Z,85.96
2018-06-29T21:20:58.899Z,86.11
2018-06-29T21:23:34.512Z,86.40
2018-06-29T21:26:03.501Z,86.20
2018-06-29T21:28:33.577Z,86.33
2018-06-29T21:31:02.545Z,86.43
2018-06-29T21:33:32.139Z,86.57
2018-06-29T21:36:01.376Z,86.46
2018-06-29T21:38:30.725Z,86.74
2018-06-29T21:41:00.296Z,86.32
2018-06-29T21:43:29.400Z,86.53
2018-06-29T21:45:58.624Z,86.23
2018-06-29T21:48:27.802Z,85.07
2018-06-29T21:50:57.002Z,85.96
2018-06-29T21:53:26.533Z,86.12
2018-06-29T21:55:55.647Z,85.63
2018-06-29T21:58:24.677Z,85.75
2018-06-29T22:00:54.977Z,85.64
2018-06-29T22:03:24.595Z,86.08
2018-06-29T22:05:54.757Z,86.21
2018-06-29T22:08:24.642Z,85.82
2018-06-29T22:10:53.789Z,85.63
2018-06-29T22:13:22.900Z,86.16
2018-06-29T22:15:52.437Z,85.83
2018-06-29T22:18:21.355Z,86.15
2018-06-29T22:20:51.892Z,86.21
2018-06-29T22:23:20.854Z,85.47
2018-06-29T22:25:52.758Z,86.04
2018-06-29T22:28:21.709Z,86.54
2018-06-29T22:30:50.862Z,86.19
2018-06-29T22:33:28.379Z,86.35
2018-06-29T22:35:57.308Z,86.05
2018-06-29T22:38:26.524Z,85.94
2018-06-29T22:40:55.493Z,86.38
2018-06-29T22:43:24.772Z,86.90
2018-06-29T22:45:54.256Z,87.14
2018-06-29T22:48:23.273Z,87.11
2018-06-29T22:50:52.199Z,87.05
2018-06-29T22:53:21.261Z,87.10
2018-06-29T22:55:50.170Z,86.56
2018-06-29T22:58:19.127Z,86.47
2018-06-29T23:00:48.069Z,86.60
2018-06-29T23:03:17.035Z,86.78
2018-06-29T23:05:45.922Z,86.79
2018-06-29T23:08:14.907Z,87.23
2018-06-29T23:10:46.910Z,86.77
2018-06-29T23:13:16.063Z,87.26
2018-06-29T23:15:44.935Z,86.94
2018-06-29T23:18:13.951Z,86.41
2018-06-29T23:20:42.947Z,86.65
2018-06-29T23:23:12.042Z,87.46
2018-06-29T23:25:41.123Z,87.26
2018-06-29T23:28:10.115Z,86.91
2018-06-29T23:30:39.126Z,86.97
2018-06-29T23:33:08.118Z,87.31
2018-06-29T23:35:37.025Z,87.28
2018-06-29T23:38:06.235Z,87.62
2018-06-29T23:40:35.419Z,87.20
2018-06-29T23:43:04.435Z,87.53
2018-06-29T23:45:39.952Z,87.08
2018-06-29T23:48:08.896Z,87.11
2018-06-29T23:50:37.966Z,87.18
2018-06-29T23:53:06.933Z,86.77
2018-06-29T23:55:35.968Z,86.67
2018-06-29T23:58:04.904Z,86.98
